Terminal Aerodrome Forecast
Issued by NWS Nashville, TN

Home | Current Version | Previous Version | Text Only | Print | Product List | Glossary On
Versions: 1 2 3 4 5 6 7 8 9 10 11 12 13 14 15 16 17 18 19 20 21 22 23 24 25 26 27 28 29 30 31 32 33 34 35
010
FTUS44 KOHX 212329
TAFBNA
TAF
KBNA 212329Z 2200/2224 34010KT P6SM SCT008 BKN012 OVC030
      TEMPO 2200/2204 4SM -SHRA BKN008
     FM220400 02006KT 5SM -SHRA OVC007
     FM220700 08004KT 2SM SHRA OVC007
     FM221500 19008KT 3SM SHRA OVC009=

USA.gov is the U.S. government's official web portal to all federal, state and local government web resources and services.